sensor_id;sensor_type;location;lat;lon;timestamp;P1;durP1;ratioP1;P2;durP2;ratioP2
38379;SDS011;38377;47.418;18.882;2023-03-13T00:01:15;8.33;;;5.93;;
38379;SDS011;38377;47.418;18.882;2023-03-13T00:03:49;8.60;;;6.07;;
38379;SDS011;38377;47.418;18.882;2023-03-13T00:06:15;10.27;;;6.70;;
38379;SDS011;38377;47.418;18.882;2023-03-13T00:08:41;9.07;;;6.50;;
38379;SDS011;38377;47.418;18.882;2023-03-13T00:11:09;7.87;;;5.50;;
38379;SDS011;38377;47.418;18.882;2023-03-13T00:13:35;13.20;;;7.30;;
38379;SDS011;38377;47.418;18.882;2023-03-13T00:16:08;10.27;;;6.97;;
38379;SDS011;38377;47.418;18.882;2023-03-13T00:18:43;9.77;;;6.70;;
38379;SDS011;38377;47.418;18.882;2023-03-13T00:21:11;7.57;;;5.80;;
38379;SDS011;38377;47.418;18.882;2023-03-13T00:23:37;9.83;;;7.10;;
38379;SDS011;38377;47.418;18.882;2023-03-13T00:26:07;9.30;;;6.60;;
38379;SDS011;38377;47.418;18.882;2023-03-13T00:28:35;8.40;;;6.30;;
38379;SDS011;38377;47.418;18.882;2023-03-13T00:31:06;9.50;;;5.87;;
38379;SDS011;38377;47.418;18.882;2023-03-13T00:33:33;10.93;;;6.68;;
38379;SDS011;38377;47.418;18.882;2023-03-13T00:36:13;11.27;;;6.10;;
38379;SDS011;38377;47.418;18.882;2023-03-13T00:38:40;8.27;;;6.00;;
38379;SDS011;38377;47.418;18.882;2023-03-13T00:41:07;8.83;;;6.20;;
38379;SDS011;38377;47.418;18.882;2023-03-13T00:43:54;9.97;;;6.87;;
38379;SDS011;38377;47.418;18.882;2023-03-13T00:46:20;10.33;;;6.10;;
38379;SDS011;38377;47.418;18.882;2023-03-13T00:48:48;8.90;;;6.13;;
38379;SDS011;38377;47.418;18.882;2023-03-13T00:51:14;10.80;;;6.87;;
38379;SDS011;38377;47.418;18.882;2023-03-13T00:53:41;9.43;;;6.47;;
38379;SDS011;38377;47.418;18.882;2023-03-13T00:56:08;9.83;;;6.20;;
38379;SDS011;38377;47.418;18.882;2023-03-13T00:58:36;10.17;;;6.57;;
38379;SDS011;38377;47.418;18.882;2023-03-13T01:03:33;9.13;;;6.17;;
38379;SDS011;38377;47.418;18.882;2023-03-13T01:05:59;10.53;;;6.43;;
38379;SDS011;38377;47.418;18.882;2023-03-13T01:08:27;7.13;;;5.67;;
38379;SDS011;38377;47.418;18.882;2023-03-13T01:11:00;9.10;;;6.47;;
38379;SDS011;38377;47.418;18.882;2023-03-13T01:13:28;10.30;;;6.53;;
38379;SDS011;38377;47.418;18.882;2023-03-13T01:15:54;8.17;;;5.87;;
38379;SDS011;38377;47.418;18.882;2023-03-13T01:18:20;9.03;;;5.80;;
38379;SDS011;38377;47.418;18.882;2023-03-13T01:20:46;10.33;;;6.20;;
38379;SDS011;38377;47.418;18.882;2023-03-13T01:23:12;11.27;;;6.63;;
38379;SDS011;38377;47.418;18.882;2023-03-13T01:25:38;8.07;;;5.67;;
38379;SDS011;38377;47.418;18.882;2023-03-13T01:28:04;9.03;;;6.50;;
38379;SDS011;38377;47.418;18.882;2023-03-13T01:30:30;8.57;;;5.73;;
38379;SDS011;38377;47.418;18.882;2023-03-13T01:32:56;8.07;;;6.07;;
38379;SDS011;38377;47.418;18.882;2023-03-13T01:35:21;9.43;;;6.03;;
38379;SDS011;38377;47.418;18.882;2023-03-13T01:37:47;8.83;;;5.80;;
38379;SDS011;38377;47.418;18.882;2023-03-13T01:40:12;9.07;;;6.40;;
38379;SDS011;38377;47.418;18.882;2023-03-13T01:42:48;8.63;;;6.30;;
38379;SDS011;38377;47.418;18.882;2023-03-13T01:48:17;8.57;;;6.17;;
38379;SDS011;38377;47.418;18.882;2023-03-13T01:50:50;8.83;;;6.40;;
38379;SDS011;38377;47.418;18.882;2023-03-13T01:53:17;10.00;;;6.17;;
38379;SDS011;38377;47.418;18.882;2023-03-13T01:55:43;9.10;;;6.50;;
38379;SDS011;38377;47.418;18.882;2023-03-13T01:58:09;7.63;;;5.27;;
38379;SDS011;38377;47.418;18.882;2023-03-13T02:00:34;8.37;;;5.73;;
38379;SDS011;38377;47.418;18.882;2023-03-13T02:03:03;7.90;;;5.70;;
38379;SDS011;38377;47.418;18.882;2023-03-13T02:05:34;8.77;;;5.73;;
38379;SDS011;38377;47.418;18.882;2023-03-13T02:08:06;9.43;;;5.97;;
38379;SDS011;38377;47.418;18.882;2023-03-13T02:10:37;9.93;;;5.83;;
38379;SDS011;38377;47.418;18.882;2023-03-13T02:13:08;9.90;;;6.33;;
38379;SDS011;38377;47.418;18.882;2023-03-13T02:15:39;8.63;;;5.90;;
38379;SDS011;38377;47.418;18.882;2023-03-13T02:18:05;9.13;;;6.27;;
38379;SDS011;38377;47.418;18.882;2023-03-13T02:20:31;7.73;;;5.63;;
38379;SDS011;38377;47.418;18.882;2023-03-13T02:25:51;8.83;;;5.73;;
38379;SDS011;38377;47.418;18.882;2023-03-13T02:28:22;9.83;;;6.53;;
38379;SDS011;38377;47.418;18.882;2023-03-13T02:30:58;9.30;;;6.30;;
38379;SDS011;38377;47.418;18.882;2023-03-13T02:33:26;8.57;;;5.83;;
38379;SDS011;38377;47.418;18.882;2023-03-13T02:35:54;7.70;;;5.10;;
38379;SDS011;38377;47.418;18.882;2023-03-13T02:38:22;11.07;;;6.43;;
38379;SDS011;38377;47.418;18.882;2023-03-13T02:40:49;10.20;;;7.17;;
38379;SDS011;38377;47.418;18.882;2023-03-13T02:46:13;9.07;;;6.07;;
38379;SDS011;38377;47.418;18.882;2023-03-13T02:48:45;10.47;;;5.80;;
38379;SDS011;38377;47.418;18.882;2023-03-13T02:53:56;10.13;;;6.70;;
38379;SDS011;38377;47.418;18.882;2023-03-13T02:56:26;8.20;;;6.13;;
38379;SDS011;38377;47.418;18.882;2023-03-13T02:58:53;9.17;;;6.57;;
38379;SDS011;38377;47.418;18.882;2023-03-13T03:01:19;11.13;;;7.10;;
38379;SDS011;38377;47.418;18.882;2023-03-13T03:03:45;10.13;;;6.33;;
38379;SDS011;38377;47.418;18.882;2023-03-13T03:06:11;8.50;;;6.43;;
38379;SDS011;38377;47.418;18.882;2023-03-13T03:08:36;8.40;;;6.27;;
38379;SDS011;38377;47.418;18.882;2023-03-13T03:11:05;9.30;;;6.20;;
38379;SDS011;38377;47.418;18.882;2023-03-13T03:13:31;7.73;;;6.50;;
38379;SDS011;38377;47.418;18.882;2023-03-13T03:15:57;10.97;;;7.17;;
38379;SDS011;38377;47.418;18.882;2023-03-13T03:18:23;8.03;;;6.13;;
38379;SDS011;38377;47.418;18.882;2023-03-13T03:20:49;12.23;;;5.93;;
38379;SDS011;38377;47.418;18.882;2023-03-13T03:23:15;9.33;;;6.47;;
38379;SDS011;38377;47.418;18.882;2023-03-13T03:25:40;8.17;;;5.47;;
38379;SDS011;38377;47.418;18.882;2023-03-13T03:28:06;8.33;;;6.13;;
38379;SDS011;38377;47.418;18.882;2023-03-13T03:30:32;10.20;;;6.00;;
38379;SDS011;38377;47.418;18.882;2023-03-13T03:32:58;11.03;;;7.17;;
38379;SDS011;38377;47.418;18.882;2023-03-13T03:35:23;9.47;;;6.40;;
38379;SDS011;38377;47.418;18.882;2023-03-13T03:37:49;10.87;;;6.80;;
38379;SDS011;38377;47.418;18.882;2023-03-13T03:40:15;11.23;;;7.13;;
38379;SDS011;38377;47.418;18.882;2023-03-13T03:42:41;11.53;;;7.50;;
38379;SDS011;38377;47.418;18.882;2023-03-13T03:45:06;10.90;;;7.83;;
38379;SDS011;38377;47.418;18.882;2023-03-13T03:47:32;8.80;;;6.80;;
38379;SDS011;38377;47.418;18.882;2023-03-13T03:49:58;10.37;;;6.93;;
38379;SDS011;38377;47.418;18.882;2023-03-13T03:52:24;12.17;;;8.40;;
38379;SDS011;38377;47.418;18.882;2023-03-13T03:54:49;12.73;;;7.77;;
38379;SDS011;38377;47.418;18.882;2023-03-13T03:57:15;13.20;;;6.90;;
38379;SDS011;38377;47.418;18.882;2023-03-13T03:59:41;12.03;;;6.73;;
38379;SDS011;38377;47.418;18.882;2023-03-13T04:02:06;10.00;;;6.60;;
38379;SDS011;38377;47.418;18.882;2023-03-13T04:04:32;8.67;;;6.47;;
38379;SDS011;38377;47.418;18.882;2023-03-13T04:06:58;10.37;;;6.47;;
38379;SDS011;38377;47.418;18.882;2023-03-13T04:09:23;13.33;;;6.10;;
38379;SDS011;38377;47.418;18.882;2023-03-13T04:11:49;10.47;;;6.63;;
38379;SDS011;38377;47.418;18.882;2023-03-13T04:14:15;9.00;;;5.97;;
38379;SDS011;38377;47.418;18.882;2023-03-13T04:16:41;7.47;;;6.00;;
38379;SDS011;38377;47.418;18.882;2023-03-13T04:19:06;9.27;;;6.33;;
38379;SDS011;38377;47.418;18.882;2023-03-13T04:21:32;9.23;;;5.80;;
38379;SDS011;38377;47.418;18.882;2023-03-13T04:23:58;9.70;;;6.50;;
38379;SDS011;38377;47.418;18.882;2023-03-13T04:26:24;7.33;;;5.70;;
38379;SDS011;38377;47.418;18.882;2023-03-13T04:28:49;7.73;;;6.00;;
38379;SDS011;38377;47.418;18.882;2023-03-13T04:31:15;7.70;;;5.53;;
38379;SDS011;38377;47.418;18.882;2023-03-13T04:33:41;9.20;;;5.80;;
38379;SDS011;38377;47.418;18.882;2023-03-13T04:36:06;9.80;;;6.23;;
38379;SDS011;38377;47.418;18.882;2023-03-13T04:38:32;8.03;;;5.80;;
38379;SDS011;38377;47.418;18.882;2023-03-13T04:40:58;9.30;;;6.20;;
38379;SDS011;38377;47.418;18.882;2023-03-13T04:43:24;10.20;;;6.53;;
38379;SDS011;38377;47.418;18.882;2023-03-13T04:45:53;10.00;;;6.83;;
38379;SDS011;38377;47.418;18.882;2023-03-13T04:48:19;11.20;;;6.73;;
38379;SDS011;38377;47.418;18.882;2023-03-13T04:50:46;12.53;;;6.60;;
38379;SDS011;38377;47.418;18.882;2023-03-13T04:53:12;9.73;;;6.80;;
38379;SDS011;38377;47.418;18.882;2023-03-13T04:55:38;8.50;;;6.00;;
38379;SDS011;38377;47.418;18.882;2023-03-13T04:58:04;9.57;;;6.80;;
38379;SDS011;38377;47.418;18.882;2023-03-13T05:00:30;10.23;;;6.13;;
38379;SDS011;38377;47.418;18.882;2023-03-13T05:02:55;9.17;;;6.00;;
38379;SDS011;38377;47.418;18.882;2023-03-13T05:05:21;8.80;;;6.20;;
38379;SDS011;38377;47.418;18.882;2023-03-13T05:07:47;7.57;;;5.77;;
38379;SDS011;38377;47.418;18.882;2023-03-13T05:10:12;10.43;;;7.10;;
38379;SDS011;38377;47.418;18.882;2023-03-13T05:12:38;10.00;;;6.50;;
38379;SDS011;38377;47.418;18.882;2023-03-13T05:15:04;9.43;;;5.70;;
38379;SDS011;38377;47.418;18.882;2023-03-13T05:17:30;9.47;;;6.27;;
38379;SDS011;38377;47.418;18.882;2023-03-13T05:19:56;10.33;;;6.80;;
38379;SDS011;38377;47.418;18.882;2023-03-13T05:22:21;11.17;;;6.43;;
38379;SDS011;38377;47.418;18.882;2023-03-13T05:24:47;9.50;;;6.83;;
38379;SDS011;38377;47.418;18.882;2023-03-13T05:27:13;11.50;;;7.03;;
38379;SDS011;38377;47.418;18.882;2023-03-13T05:29:38;11.07;;;6.30;;
38379;SDS011;38377;47.418;18.882;2023-03-13T05:32:04;11.40;;;7.23;;
38379;SDS011;38377;47.418;18.882;2023-03-13T05:34:30;10.70;;;6.30;;
38379;SDS011;38377;47.418;18.882;2023-03-13T05:36:56;10.27;;;6.50;;
38379;SDS011;38377;47.418;18.882;2023-03-13T05:39:21;13.37;;;6.57;;
38379;SDS011;38377;47.418;18.882;2023-03-13T05:41:47;10.53;;;6.63;;
38379;SDS011;38377;47.418;18.882;2023-03-13T05:44:13;9.97;;;6.57;;
38379;SDS011;38377;47.418;18.882;2023-03-13T05:46:39;10.70;;;6.73;;
38379;SDS011;38377;47.418;18.882;2023-03-13T05:49:04;11.73;;;6.23;;
38379;SDS011;38377;47.418;18.882;2023-03-13T05:51:30;11.03;;;6.17;;
38379;SDS011;38377;47.418;18.882;2023-03-13T05:53:56;8.83;;;6.20;;
38379;SDS011;38377;47.418;18.882;2023-03-13T05:56:21;13.40;;;7.33;;
38379;SDS011;38377;47.418;18.882;2023-03-13T05:58:47;10.17;;;6.73;;
38379;SDS011;38377;47.418;18.882;2023-03-13T06:01:13;11.03;;;7.07;;
38379;SDS011;38377;47.418;18.882;2023-03-13T06:03:39;13.13;;;6.90;;
38379;SDS011;38377;47.418;18.882;2023-03-13T06:06:05;10.93;;;6.70;;
38379;SDS011;38377;47.418;18.882;2023-03-13T06:08:30;11.43;;;7.03;;
38379;SDS011;38377;47.418;18.882;2023-03-13T06:10:59;10.53;;;7.03;;
38379;SDS011;38377;47.418;18.882;2023-03-13T06:13:26;11.67;;;6.73;;
38379;SDS011;38377;47.418;18.882;2023-03-13T06:15:53;16.33;;;7.20;;
38379;SDS011;38377;47.418;18.882;2023-03-13T06:18:20;12.23;;;6.20;;
38379;SDS011;38377;47.418;18.882;2023-03-13T06:20:48;11.97;;;7.80;;
38379;SDS011;38377;47.418;18.882;2023-03-13T06:23:14;10.87;;;6.03;;
38379;SDS011;38377;47.418;18.882;2023-03-13T06:25:40;14.97;;;6.00;;
38379;SDS011;38377;47.418;18.882;2023-03-13T06:28:06;7.10;;;5.63;;
38379;SDS011;38377;47.418;18.882;2023-03-13T06:30:32;8.07;;;5.17;;
38379;SDS011;38377;47.418;18.882;2023-03-13T06:32:58;9.83;;;5.70;;
38379;SDS011;38377;47.418;18.882;2023-03-13T06:35:23;8.87;;;5.50;;
38379;SDS011;38377;47.418;18.882;2023-03-13T06:37:49;6.73;;;4.77;;
38379;SDS011;38377;47.418;18.882;2023-03-13T06:40:15;10.13;;;5.10;;
38379;SDS011;38377;47.418;18.882;2023-03-13T06:42:40;14.57;;;6.10;;
38379;SDS011;38377;47.418;18.882;2023-03-13T06:45:06;11.80;;;5.90;;
38379;SDS011;38377;47.418;18.882;2023-03-13T06:47:32;8.83;;;5.87;;
38379;SDS011;38377;47.418;18.882;2023-03-13T06:49:58;10.83;;;5.90;;
38379;SDS011;38377;47.418;18.882;2023-03-13T06:52:24;6.93;;;5.03;;
38379;SDS011;38377;47.418;18.882;2023-03-13T06:54:49;9.43;;;5.77;;
38379;SDS011;38377;47.418;18.882;2023-03-13T06:57:15;9.00;;;5.70;;
38379;SDS011;38377;47.418;18.882;2023-03-13T06:59:41;19.03;;;10.63;;
38379;SDS011;38377;47.418;18.882;2023-03-13T07:02:08;24.57;;;15.17;;
38379;SDS011;38377;47.418;18.882;2023-03-13T07:04:35;21.97;;;12.00;;
38379;SDS011;38377;47.418;18.882;2023-03-13T07:07:01;14.20;;;8.65;;
38379;SDS011;38377;47.418;18.882;2023-03-13T07:09:27;12.93;;;6.93;;
38379;SDS011;38377;47.418;18.882;2023-03-13T07:11:52;10.27;;;6.10;;
38379;SDS011;38377;47.418;18.882;2023-03-13T07:14:18;7.88;;;5.10;;
38379;SDS011;38377;47.418;18.882;2023-03-13T07:16:45;8.50;;;5.17;;
38379;SDS011;38377;47.418;18.882;2023-03-13T07:19:11;7.63;;;5.10;;
38379;SDS011;38377;47.418;18.882;2023-03-13T07:21:37;6.07;;;4.25;;
38379;SDS011;38377;47.418;18.882;2023-03-13T07:24:02;8.35;;;5.30;;
38379;SDS011;38377;47.418;18.882;2023-03-13T07:26:28;5.78;;;4.35;;
38379;SDS011;38377;47.418;18.882;2023-03-13T07:28:54;8.40;;;4.80;;
38379;SDS011;38377;47.418;18.882;2023-03-13T07:31:20;8.07;;;5.63;;
38379;SDS011;38377;47.418;18.882;2023-03-13T07:33:48;6.53;;;4.88;;
38379;SDS011;38377;47.418;18.882;2023-03-13T07:36:17;8.30;;;4.75;;
38379;SDS011;38377;47.418;18.882;2023-03-13T07:38:46;5.90;;;4.50;;
38379;SDS011;38377;47.418;18.882;2023-03-13T07:41:15;7.68;;;5.00;;
38379;SDS011;38377;47.418;18.882;2023-03-13T07:43:42;5.72;;;4.80;;
38379;SDS011;38377;47.418;18.882;2023-03-13T07:46:09;7.32;;;4.75;;
38379;SDS011;38377;47.418;18.882;2023-03-13T07:48:37;5.80;;;4.45;;
38379;SDS011;38377;47.418;18.882;2023-03-13T07:51:05;8.02;;;5.55;;
38379;SDS011;38377;47.418;18.882;2023-03-13T07:53:33;9.05;;;5.10;;
38379;SDS011;38377;47.418;18.882;2023-03-13T07:56:03;9.93;;;4.60;;
38379;SDS011;38377;47.418;18.882;2023-03-13T07:58:31;6.47;;;5.15;;
38379;SDS011;38377;47.418;18.882;2023-03-13T08:00:59;7.32;;;4.70;;
38379;SDS011;38377;47.418;18.882;2023-03-13T08:03:25;9.23;;;6.65;;
38379;SDS011;38377;47.418;18.882;2023-03-13T08:05:59;5.22;;;4.32;;
38379;SDS011;38377;47.418;18.882;2023-03-13T08:08:26;6.07;;;4.63;;
38379;SDS011;38377;47.418;18.882;2023-03-13T08:10:52;5.85;;;4.40;;
38379;SDS011;38377;47.418;18.882;2023-03-13T08:13:18;9.23;;;4.45;;
38379;SDS011;38377;47.418;18.882;2023-03-13T08:15:44;7.43;;;4.68;;
38379;SDS011;38377;47.418;18.882;2023-03-13T08:18:09;7.50;;;4.70;;
38379;SDS011;38377;47.418;18.882;2023-03-13T08:20:35;5.78;;;4.32;;
38379;SDS011;38377;47.418;18.882;2023-03-13T08:23:00;11.20;;;5.35;;
38379;SDS011;38377;47.418;18.882;2023-03-13T08:25:26;6.43;;;4.25;;
38379;SDS011;38377;47.418;18.882;2023-03-13T08:27:52;6.10;;;4.38;;
38379;SDS011;38377;47.418;18.882;2023-03-13T08:30:18;8.00;;;5.60;;
38379;SDS011;38377;47.418;18.882;2023-03-13T08:32:44;7.10;;;5.40;;
38379;SDS011;38377;47.418;18.882;2023-03-13T08:35:10;6.25;;;4.32;;
38379;SDS011;38377;47.418;18.882;2023-03-13T08:37:35;6.53;;;4.50;;
38379;SDS011;38377;47.418;18.882;2023-03-13T08:40:01;6.57;;;4.65;;
38379;SDS011;38377;47.418;18.882;2023-03-13T08:42:28;6.13;;;4.30;;
38379;SDS011;38377;47.418;18.882;2023-03-13T08:44:53;6.57;;;3.90;;
38379;SDS011;38377;47.418;18.882;2023-03-13T08:47:19;7.43;;;4.72;;
38379;SDS011;38377;47.418;18.882;2023-03-13T08:49:45;9.35;;;4.63;;
38379;SDS011;38377;47.418;18.882;2023-03-13T08:52:10;5.97;;;3.75;;
38379;SDS011;38377;47.418;18.882;2023-03-13T08:54:36;7.70;;;4.13;;
38379;SDS011;38377;47.418;18.882;2023-03-13T08:57:02;5.65;;;4.05;;
38379;SDS011;38377;47.418;18.882;2023-03-13T08:59:28;7.22;;;4.35;;
38379;SDS011;38377;47.418;18.882;2023-03-13T09:01:53;5.93;;;4.90;;
38379;SDS011;38377;47.418;18.882;2023-03-13T09:04:19;5.28;;;4.22;;
38379;SDS011;38377;47.418;18.882;2023-03-13T09:06:45;4.38;;;3.47;;
38379;SDS011;38377;47.418;18.882;2023-03-13T09:09:11;5.53;;;3.95;;
38379;SDS011;38377;47.418;18.882;2023-03-13T09:11:37;7.43;;;4.88;;
38379;SDS011;38377;47.418;18.882;2023-03-13T09:14:04;7.00;;;4.90;;
38379;SDS011;38377;47.418;18.882;2023-03-13T09:16:32;8.82;;;4.25;;
38379;SDS011;38377;47.418;18.882;2023-03-13T09:18:58;7.78;;;4.43;;
38379;SDS011;38377;47.418;18.882;2023-03-13T09:21:32;7.05;;;4.55;;
38379;SDS011;38377;47.418;18.882;2023-03-13T09:23:59;7.50;;;4.32;;
38379;SDS011;38377;47.418;18.882;2023-03-13T09:26:26;6.82;;;4.68;;
38379;SDS011;38377;47.418;18.882;2023-03-13T09:28:52;6.75;;;4.45;;
38379;SDS011;38377;47.418;18.882;2023-03-13T09:31:20;7.15;;;4.90;;
38379;SDS011;38377;47.418;18.882;2023-03-13T09:33:50;6.80;;;4.97;;
38379;SDS011;38377;47.418;18.882;2023-03-13T09:36:16;8.02;;;4.15;;
38379;SDS011;38377;47.418;18.882;2023-03-13T09:38:43;12.65;;;6.82;;
38379;SDS011;38377;47.418;18.882;2023-03-13T09:46:25;4.88;;;3.47;;
38379;SDS011;38377;47.418;18.882;2023-03-13T09:49:03;10.35;;;4.82;;
38379;SDS011;38377;47.418;18.882;2023-03-13T09:51:36;10.95;;;5.88;;
38379;SDS011;38377;47.418;18.882;2023-03-13T09:57:07;7.28;;;3.95;;
38379;SDS011;38377;47.418;18.882;2023-03-13T10:02:26;6.05;;;3.97;;
38379;SDS011;38377;47.418;18.882;2023-03-13T10:07:39;16.75;;;4.38;;
38379;SDS011;38377;47.418;18.882;2023-03-13T10:10:14;5.82;;;4.10;;
38379;SDS011;38377;47.418;18.882;2023-03-13T10:12:48;5.47;;;3.92;;
38379;SDS011;38377;47.418;18.882;2023-03-13T10:17:53;6.32;;;4.00;;
38379;SDS011;38377;47.418;18.882;2023-03-13T10:22:50;4.85;;;3.80;;
38379;SDS011;38377;47.418;18.882;2023-03-13T10:25:35;6.65;;;4.28;;
38379;SDS011;38377;47.418;18.882;2023-03-13T10:28:04;7.00;;;3.78;;
38379;SDS011;38377;47.418;18.882;2023-03-13T10:30:34;8.50;;;4.07;;
38379;SDS011;38377;47.418;18.882;2023-03-13T10:35:37;6.55;;;4.90;;
38379;SDS011;38377;47.418;18.882;2023-03-13T10:38:07;5.40;;;4.13;;
38379;SDS011;38377;47.418;18.882;2023-03-13T10:41:07;4.68;;;3.78;;
38379;SDS011;38377;47.418;18.882;2023-03-13T10:43:49;4.75;;;3.35;;
38379;SDS011;38377;47.418;18.882;2023-03-13T10:46:27;5.95;;;3.60;;
38379;SDS011;38377;47.418;18.882;2023-03-13T10:48:55;6.57;;;3.97;;
38379;SDS011;38377;47.418;18.882;2023-03-13T10:51:24;6.72;;;3.83;;
38379;SDS011;38377;47.418;18.882;2023-03-13T10:53:59;6.68;;;3.42;;
38379;SDS011;38377;47.418;18.882;2023-03-13T10:56:28;7.95;;;4.43;;
38379;SDS011;38377;47.418;18.882;2023-03-13T10:58:54;7.05;;;3.90;;
38379;SDS011;38377;47.418;18.882;2023-03-13T11:01:41;7.05;;;4.93;;
38379;SDS011;38377;47.418;18.882;2023-03-13T11:04:19;10.10;;;5.07;;
38379;SDS011;38377;47.418;18.882;2023-03-13T11:06:57;8.93;;;5.20;;
38379;SDS011;38377;47.418;18.882;2023-03-13T11:09:28;6.45;;;4.50;;
38379;SDS011;38377;47.418;18.882;2023-03-13T11:11:54;6.35;;;4.22;;
38379;SDS011;38377;47.418;18.882;2023-03-13T11:14:29;8.27;;;4.28;;
38379;SDS011;38377;47.418;18.882;2023-03-13T11:24:43;9.13;;;4.38;;
38379;SDS011;38377;47.418;18.882;2023-03-13T11:38:17;6.00;;;5.03;;
38379;SDS011;38377;47.418;18.882;2023-03-13T11:41:03;7.30;;;4.90;;
38379;SDS011;38377;47.418;18.882;2023-03-13T11:43:44;6.78;;;5.00;;
38379;SDS011;38377;47.418;18.882;2023-03-13T11:57:29;6.93;;;5.28;;
38379;SDS011;38377;47.418;18.882;2023-03-13T12:05:51;6.97;;;4.93;;
38379;SDS011;38377;47.418;18.882;2023-03-13T12:08:20;6.10;;;4.18;;
38379;SDS011;38377;47.418;18.882;2023-03-13T12:13:36;6.45;;;3.92;;
38379;SDS011;38377;47.418;18.882;2023-03-13T12:16:14;6.28;;;3.47;;
38379;SDS011;38377;47.418;18.882;2023-03-13T12:18:47;5.38;;;3.47;;
38379;SDS011;38377;47.418;18.882;2023-03-13T12:23:56;7.57;;;3.95;;
38379;SDS011;38377;47.418;18.882;2023-03-13T12:26:41;9.75;;;4.05;;
38379;SDS011;38377;47.418;18.882;2023-03-13T12:31:52;4.68;;;3.30;;
38379;SDS011;38377;47.418;18.882;2023-03-13T12:34:31;4.93;;;3.53;;
38379;SDS011;38377;47.418;18.882;2023-03-13T12:39:39;5.55;;;3.63;;
38379;SDS011;38377;47.418;18.882;2023-03-13T12:45:00;4.82;;;3.03;;
38379;SDS011;38377;47.418;18.882;2023-03-13T12:48:12;4.60;;;3.30;;
38379;SDS011;38377;47.418;18.882;2023-03-13T12:58:40;4.28;;;2.38;;
38379;SDS011;38377;47.418;18.882;2023-03-13T13:01:13;8.65;;;2.83;;
38379;SDS011;38377;47.418;18.882;2023-03-13T13:04:00;2.72;;;2.28;;
38379;SDS011;38377;47.418;18.882;2023-03-13T13:09:20;3.75;;;2.45;;
38379;SDS011;38377;47.418;18.882;2023-03-13T13:11:51;4.80;;;2.78;;
38379;SDS011;38377;47.418;18.882;2023-03-13T13:16:56;4.78;;;2.33;;
38379;SDS011;38377;47.418;18.882;2023-03-13T13:25:24;5.20;;;2.10;;
38379;SDS011;38377;47.418;18.882;2023-03-13T13:27:53;5.15;;;2.47;;
38379;SDS011;38377;47.418;18.882;2023-03-13T13:32:45;4.72;;;2.38;;
38379;SDS011;38377;47.418;18.882;2023-03-13T13:43:34;4.20;;;2.65;;
38379;SDS011;38377;47.418;18.882;2023-03-13T13:48:40;4.43;;;2.00;;
38379;SDS011;38377;47.418;18.882;2023-03-13T14:01:47;3.47;;;1.25;;
38379;SDS011;38377;47.418;18.882;2023-03-13T14:04:16;3.55;;;2.10;;
38379;SDS011;38377;47.418;18.882;2023-03-13T14:06:51;6.80;;;1.80;;
38379;SDS011;38377;47.418;18.882;2023-03-13T14:09:30;2.00;;;1.13;;
38379;SDS011;38377;47.418;18.882;2023-03-13T14:17:37;3.10;;;1.75;;
38379;SDS011;38377;47.418;18.882;2023-03-13T14:20:05;5.32;;;1.60;;
38379;SDS011;38377;47.418;18.882;2023-03-13T14:22:49;6.78;;;2.00;;
38379;SDS011;38377;47.418;18.882;2023-03-13T14:25:15;4.90;;;2.08;;
38379;SDS011;38377;47.418;18.882;2023-03-13T14:27:45;3.30;;;1.88;;
38379;SDS011;38377;47.418;18.882;2023-03-13T14:30:12;5.07;;;1.55;;
38379;SDS011;38377;47.418;18.882;2023-03-13T14:32:41;5.28;;;2.28;;
38379;SDS011;38377;47.418;18.882;2023-03-13T14:35:08;4.68;;;2.05;;
38379;SDS011;38377;47.418;18.882;2023-03-13T14:37:42;5.40;;;2.50;;
38379;SDS011;38377;47.418;18.882;2023-03-13T14:42:50;3.60;;;2.63;;
38379;SDS011;38377;47.418;18.882;2023-03-13T14:45:41;2.47;;;1.70;;
38379;SDS011;38377;47.418;18.882;2023-03-13T14:48:19;4.50;;;2.20;;
38379;SDS011;38377;47.418;18.882;2023-03-13T14:51:08;8.65;;;2.83;;
38379;SDS011;38377;47.418;18.882;2023-03-13T14:53:36;5.32;;;2.45;;
38379;SDS011;38377;47.418;18.882;2023-03-13T14:56:14;4.50;;;1.73;;
38379;SDS011;38377;47.418;18.882;2023-03-13T14:58:43;4.63;;;1.83;;
38379;SDS011;38377;47.418;18.882;2023-03-13T15:01:11;3.78;;;1.70;;
38379;SDS011;38377;47.418;18.882;2023-03-13T15:03:42;2.40;;;1.70;;
38379;SDS011;38377;47.418;18.882;2023-03-13T15:08:40;3.90;;;1.60;;
38379;SDS011;38377;47.418;18.882;2023-03-13T15:11:20;4.68;;;2.10;;
38379;SDS011;38377;47.418;18.882;2023-03-13T15:13:46;3.95;;;1.70;;
38379;SDS011;38377;47.418;18.882;2023-03-13T15:16:13;3.25;;;2.45;;
38379;SDS011;38377;47.418;18.882;2023-03-13T15:18:40;2.38;;;1.67;;
38379;SDS011;38377;47.418;18.882;2023-03-13T15:23:38;3.38;;;2.10;;
38379;SDS011;38377;47.418;18.882;2023-03-13T15:26:04;3.75;;;1.90;;
38379;SDS011;38377;47.418;18.882;2023-03-13T15:28:30;3.90;;;1.92;;
38379;SDS011;38377;47.418;18.882;2023-03-13T15:30:56;4.30;;;1.67;;
38379;SDS011;38377;47.418;18.882;2023-03-13T15:33:25;6.60;;;2.78;;
38379;SDS011;38377;47.418;18.882;2023-03-13T15:35:52;9.45;;;3.83;;
38379;SDS011;38377;47.418;18.882;2023-03-13T15:38:19;8.48;;;2.70;;
38379;SDS011;38377;47.418;18.882;2023-03-13T15:40:47;5.45;;;2.03;;
38379;SDS011;38377;47.418;18.882;2023-03-13T15:43:13;7.88;;;2.97;;
38379;SDS011;38377;47.418;18.882;2023-03-13T15:45:40;10.05;;;2.45;;
38379;SDS011;38377;47.418;18.882;2023-03-13T15:48:15;4.25;;;2.58;;
38379;SDS011;38377;47.418;18.882;2023-03-13T15:50:44;4.20;;;2.72;;
38379;SDS011;38377;47.418;18.882;2023-03-13T15:53:17;5.45;;;2.42;;
38379;SDS011;38377;47.418;18.882;2023-03-13T15:55:45;5.57;;;2.40;;
38379;SDS011;38377;47.418;18.882;2023-03-13T15:58:13;8.73;;;2.70;;
38379;SDS011;38377;47.418;18.882;2023-03-13T16:00:40;3.42;;;2.03;;
38379;SDS011;38377;47.418;18.882;2023-03-13T16:03:08;8.13;;;2.30;;
38379;SDS011;38377;47.418;18.882;2023-03-13T16:05:39;10.20;;;4.47;;
38379;SDS011;38377;47.418;18.882;2023-03-13T16:08:04;6.22;;;2.00;;
38379;SDS011;38377;47.418;18.882;2023-03-13T16:10:30;6.50;;;2.10;;
38379;SDS011;38377;47.418;18.882;2023-03-13T16:12:56;9.00;;;5.80;;
38379;SDS011;38377;47.418;18.882;2023-03-13T16:15:22;9.65;;;3.80;;
38379;SDS011;38377;47.418;18.882;2023-03-13T16:17:48;27.55;;;5.97;;
38379;SDS011;38377;47.418;18.882;2023-03-13T16:20:15;8.38;;;4.50;;
38379;SDS011;38377;47.418;18.882;2023-03-13T16:22:43;7.80;;;3.00;;
38379;SDS011;38377;47.418;18.882;2023-03-13T16:25:09;7.20;;;2.60;;
38379;SDS011;38377;47.418;18.882;2023-03-13T16:27:35;6.63;;;2.85;;
38379;SDS011;38377;47.418;18.882;2023-03-13T16:30:01;7.65;;;3.17;;
38379;SDS011;38377;47.418;18.882;2023-03-13T16:32:30;8.07;;;3.65;;
38379;SDS011;38377;47.418;18.882;2023-03-13T16:34:56;17.42;;;4.72;;
38379;SDS011;38377;47.418;18.882;2023-03-13T16:37:23;15.07;;;7.53;;
38379;SDS011;38377;47.418;18.882;2023-03-13T16:39:49;15.98;;;6.70;;
38379;SDS011;38377;47.418;18.882;2023-03-13T16:42:15;8.50;;;4.32;;
38379;SDS011;38377;47.418;18.882;2023-03-13T16:44:41;7.25;;;3.97;;
38379;SDS011;38377;47.418;18.882;2023-03-13T16:47:23;7.93;;;3.70;;
38379;SDS011;38377;47.418;18.882;2023-03-13T16:49:51;14.00;;;5.60;;
38379;SDS011;38377;47.418;18.882;2023-03-13T16:52:17;9.80;;;5.18;;
38379;SDS011;38377;47.418;18.882;2023-03-13T16:54:43;18.75;;;5.93;;
38379;SDS011;38377;47.418;18.882;2023-03-13T16:57:14;9.63;;;4.95;;
38379;SDS011;38377;47.418;18.882;2023-03-13T16:59:46;17.00;;;5.90;;